Time;durP1;ratioP1;P1;durP2;ratioP2;P2;SDS_P1;SDS_P2;PMS_P1;PMS_P2;Temp;Humidity;BMP_temperature;BMP_pressure;BME280_temperature;BME280_humidity;BME280_pressure;Samples;Min_cycle;Max_cycle;Signal;HPM_P1;HPM_P2
2021/05/16 00:00:35;;;;;;;4.82;1.77;;;;;;;9.72;75.49;99559.44;5048556;28;20024;-54
2021/05/16 00:03:01;;;;;;;6.50;1.65;;;;;;;9.91;74.35;99556.47;5046386;28;20554;-49
2021/05/16 00:05:29;;;;;;;4.28;1.60;;;;;;;10.03;74.07;99556.22;5050893;28;20044;-50
2021/05/16 00:07:55;;;;;;;7.75;2.17;;;;;;;10.00;73.54;99559.75;5044327;27;20040;-51
2021/05/16 00:10:24;;;;;;;6.78;1.98;;;;;;;10.00;73.36;99561.50;5041664;28;20510;-53
2021/05/16 00:12:51;;;;;;;6.55;1.85;;;;;;;10.05;73.72;99551.81;5056635;28;20143;-51
2021/05/16 00:15:18;;;;;;;5.05;1.80;;;;;;;9.67;75.74;99558.66;5045710;28;20832;-53
2021/05/16 00:17:44;;;;;;;6.72;1.67;;;;;;;9.61;76.04;99546.59;5046120;28;20051;-50
2021/05/16 00:20:14;;;;;;;6.00;1.75;;;;;;;9.94;73.38;99551.16;5027540;28;20045;-52
2021/05/16 00:22:40;;;;;;;4.38;1.73;;;;;;;9.87;74.10;99545.22;5046040;28;20049;-51
2021/05/16 00:25:10;;;;;;;7.78;1.60;;;;;;;10.02;73.29;99546.66;5046225;28;20102;-49
2021/05/16 00:27:37;;;;;;;7.00;1.70;;;;;;;9.89;72.94;99549.50;5046908;28;20501;-50
2021/05/16 00:30:06;;;;;;;7.35;1.80;;;;;;;9.95;73.58;99545.06;5064592;28;20489;-51
2021/05/16 00:32:32;;;;;;;6.68;1.45;;;;;;;9.90;73.02;99553.00;5066788;28;20537;-49
2021/05/16 00:34:57;;;;;;;8.48;2.05;;;;;;;10.06;73.50;99537.88;5067800;28;20047;-49
2021/05/16 00:37:24;;;;;;;6.25;1.80;;;;;;;9.79;73.72;99537.53;5049402;28;20063;-51
2021/05/16 00:39:50;;;;;;;8.45;2.20;;;;;;;10.01;72.62;99537.09;5065046;28;20035;-52
2021/05/16 00:42:15;;;;;;;7.93;1.92;;;;;;;10.00;72.40;99548.44;5068785;28;20050;-52
2021/05/16 00:45:20;;;;;;;6.55;1.50;;;;;;;9.93;73.38;99546.84;5068089;28;20396;-50
2021/05/16 00:47:54;;;;;;;8.80;2.20;;;;;;;9.87;72.54;99537.38;5023988;28;20332;-51
2021/05/16 00:50:22;;;;;;;7.25;1.60;;;;;;;9.93;73.03;99552.06;5056412;28;20470;-51
2021/05/16 00:52:48;;;;;;;8.10;1.60;;;;;;;9.96;72.13;99550.25;5055040;28;20044;-50
2021/05/16 00:55:17;;;;;;;6.35;1.40;;;;;;;9.82;73.06;99547.91;5043546;28;20064;-53
2021/05/16 00:57:44;;;;;;;7.82;1.75;;;;;;;9.74;72.90;99538.53;5059997;28;20465;-49
2021/05/16 01:00:13;;;;;;;5.65;1.50;;;;;;;9.82;73.52;99547.06;5050658;28;20111;-51
2021/05/16 01:02:39;;;;;;;7.45;1.80;;;;;;;10.04;72.18;99548.34;5059847;28;20439;-52
2021/05/16 01:05:07;;;;;;;9.88;2.03;;;;;;;9.89;72.11;99541.69;5028573;28;20040;-50
2021/05/16 01:07:35;;;;;;;10.50;2.13;;;;;;;10.06;71.89;99545.69;5062735;28;20040;-50
2021/05/16 01:10:06;;;;;;;8.57;2.15;;;;;;;9.99;72.12;99541.50;5060117;27;20052;-51
2021/05/16 01:12:40;;;;;;;8.93;2.03;;;;;;;9.98;71.50;99534.56;5048525;28;20024;-49
2021/05/16 01:15:08;;;;;;;8.25;1.73;;;;;;;9.93;72.20;99542.50;5065834;28;20074;-49
2021/05/16 01:17:34;;;;;;;7.40;2.17;;;;;;;9.93;71.97;99541.59;5054135;28;20491;-50
2021/05/16 01:20:00;;;;;;;10.55;2.33;;;;;;;9.81;72.19;99542.72;5082991;28;20465;-49
2021/05/16 01:22:25;;;;;;;13.70;2.35;;;;;;;9.86;73.02;99538.28;5046917;28;20084;-50
2021/05/16 01:24:51;;;;;;;5.18;1.42;;;;;;;9.96;71.98;99541.56;5063128;28;20062;-53
2021/05/16 01:27:17;;;;;;;11.13;1.90;;;;;;;9.87;71.62;99540.88;5045651;28;20040;-53
2021/05/16 01:29:43;;;;;;;7.82;1.88;;;;;;;9.72;73.23;99551.59;5060162;28;20485;-53
2021/05/16 01:32:11;;;;;;;8.05;1.90;;;;;;;9.67;72.48;99546.47;5062381;28;20056;-50
2021/05/16 01:34:42;;;;;;;7.25;1.88;;;;;;;9.58;73.17;99553.59;5050824;28;20248;-50
2021/05/16 01:37:13;;;;;;;6.72;2.22;;;;;;;9.50;74.13;99556.38;5020541;28;20044;-49
2021/05/16 01:39:44;;;;;;;8.82;1.90;;;;;;;9.84;71.86;99540.06;5067445;28;20032;-50
2021/05/16 01:42:11;;;;;;;8.18;2.00;;;;;;;9.59;73.84;99550.97;5064100;28;20151;-51
2021/05/16 01:44:38;;;;;;;4.95;1.60;;;;;;;9.49;74.06;99552.88;5046919;28;20036;-50
2021/05/16 01:47:04;;;;;;;6.55;2.03;;;;;;;9.47;73.85;99559.00;5063539;28;20055;-51
2021/05/16 01:49:40;;;;;;;7.45;2.10;;;;;;;9.19;75.95;99551.66;5038850;28;20032;-53
2021/05/16 01:52:06;;;;;;;7.85;2.28;;;;;;;9.42;75.08;99550.44;5048008;28;20074;-50
2021/05/16 01:54:33;;;;;;;6.68;1.92;;;;;;;9.25;75.32;99554.19;5047496;28;20465;-50
2021/05/16 01:57:00;;;;;;;9.25;2.25;;;;;;;9.27;75.46;99559.38;5068119;27;20109;-53
2021/05/16 01:59:26;;;;;;;6.80;1.90;;;;;;;9.10;77.36;99557.06;5064251;28;20043;-50
2021/05/16 02:01:52;;;;;;;8.40;2.35;;;;;;;9.07;76.82;99560.56;5053778;28;20041;-50
2021/05/16 02:04:18;;;;;;;5.07;1.88;;;;;;;9.11;76.44;99554.41;5042390;28;20058;-53
2021/05/16 02:06:44;;;;;;;8.88;2.30;;;;;;;9.03;75.88;99564.09;5030409;28;20328;-50
2021/05/16 02:09:10;;;;;;;10.63;2.08;;;;;;;8.89;77.10;99560.84;5050622;28;20040;-51
2021/05/16 02:11:37;;;;;;;6.15;2.22;;;;;;;9.11;76.16;99557.03;5041630;28;20033;-50
2021/05/16 02:14:07;;;;;;;6.35;2.50;;;;;;;9.02;75.27;99559.78;5045746;28;20155;-51
2021/05/16 02:16:34;;;;;;;6.25;1.80;;;;;;;9.02;75.19;99559.78;5045501;28;20044;-50
2021/05/16 02:19:06;;;;;;;8.05;1.67;;;;;;;9.06;75.19;99558.84;5047833;28;20036;-49
2021/05/16 02:21:36;;;;;;;4.05;2.00;;;;;;;9.08;75.00;99559.66;5051823;28;20097;-49
2021/05/16 02:24:03;;;;;;;8.82;2.25;;;;;;;9.10;74.97;99555.28;5063650;28;20071;-48
2021/05/16 02:26:58;;;;;;;5.68;2.25;;;;;;;9.19;74.32;99552.53;5045728;28;20040;-49
2021/05/16 02:29:25;;;;;;;5.43;2.15;;;;;;;9.09;74.25;99558.78;5042889;28;20127;-49
2021/05/16 02:31:51;;;;;;;6.68;2.10;;;;;;;8.97;74.69;99558.97;5066817;28;20047;-48
2021/05/16 02:34:17;;;;;;;6.72;2.22;;;;;;;9.03;74.47;99551.06;5065984;28;20093;-50
2021/05/16 02:36:44;;;;;;;5.28;2.70;;;;;;;9.02;74.69;99557.16;5052002;28;20446;-49
2021/05/16 02:39:11;;;;;;;7.73;2.77;;;;;;;9.06;74.40;99555.38;5064491;28;20890;-49
2021/05/16 02:41:40;;;;;;;13.18;2.83;;;;;;;9.09;74.67;99556.16;5063432;28;20040;-49
2021/05/16 02:44:06;;;;;;;4.57;1.90;;;;;;;8.98;73.92;99545.91;5064916;28;20432;-50
2021/05/16 02:46:33;;;;;;;7.05;2.28;;;;;;;8.99;74.45;99550.25;5047737;28;20625;-49
2021/05/16 02:48:59;;;;;;;6.57;1.85;;;;;;;8.85;75.68;99554.84;5048515;28;20036;-50
2021/05/16 02:51:25;;;;;;;8.70;2.25;;;;;;;8.82;75.64;99547.91;5065511;28;20040;-51
2021/05/16 02:53:53;;;;;;;6.03;1.80;;;;;;;8.72;75.29;99548.06;5048067;28;20040;-50
2021/05/16 02:56:19;;;;;;;7.88;2.40;;;;;;;8.93;74.98;99546.88;5050637;28;20078;-49
2021/05/16 02:58:45;;;;;;;6.97;2.08;;;;;;;8.79;74.94;99545.38;5046393;28;20044;-49
2021/05/16 03:01:12;;;;;;;4.65;1.90;;;;;;;8.47;76.87;99549.31;5043984;28;20063;-52
2021/05/16 03:03:43;;;;;;;6.47;2.05;;;;;;;8.47;77.08;99549.31;5043774;28;20036;-53
2021/05/16 03:06:11;;;;;;;7.25;2.35;;;;;;;8.32;78.04;99544.25;5028601;28;20028;-50
2021/05/16 03:08:37;;;;;;;8.40;2.70;;;;;;;8.55;76.55;99545.72;5043927;28;20048;-48
2021/05/16 03:11:03;;;;;;;9.63;2.75;;;;;;;8.43;76.71;99542.38;5048197;28;20086;-48
2021/05/16 03:13:29;;;;;;;6.95;2.30;;;;;;;8.42;77.01;99548.47;5066870;27;20048;-49
2021/05/16 03:15:56;;;;;;;8.07;2.65;;;;;;;8.25;78.33;99551.31;5027810;28;20040;-52
2021/05/16 03:18:25;;;;;;;6.68;2.20;;;;;;;8.17;78.10;99545.34;5062034;28;20572;-49
2021/05/16 03:20:50;;;;;;;7.38;2.42;;;;;;;8.31;77.68;99547.75;5062161;28;20101;-51
2021/05/16 03:23:17;;;;;;;6.55;2.47;;;;;;;8.22;77.55;99548.72;5075577;28;20040;-49
2021/05/16 03:25:45;;;;;;;7.57;2.30;;;;;;;8.04;78.25;99544.59;5054364;28;20177;-49
2021/05/16 03:28:11;;;;;;;7.15;2.00;;;;;;;7.98;77.62;99544.69;5078404;27;20084;-52
2021/05/16 03:30:37;;;;;;;9.70;2.95;;;;;;;8.18;77.20;99537.50;5066990;28;20048;-50
2021/05/16 03:33:03;;;;;;;8.10;2.60;;;;;;;8.07;78.26;99542.00;5064557;27;20040;-51
2021/05/16 03:35:29;;;;;;;6.03;1.75;;;;;;;8.05;77.63;99540.28;5065487;28;20040;-51
2021/05/16 03:37:54;;;;;;;6.28;2.20;;;;;;;8.35;77.26;99544.22;5062949;28;20044;-50
2021/05/16 03:40:20;;;;;;;8.40;2.20;;;;;;;8.32;77.33;99544.25;5065336;28;20575;-50
2021/05/16 03:42:46;;;;;;;5.47;2.08;;;;;;;8.28;76.69;99548.66;5065016;28;20028;-53
2021/05/16 03:45:13;;;;;;;3.53;1.60;;;;;;;8.16;77.90;99552.25;5043302;28;20374;-50
2021/05/16 03:47:39;;;;;;;6.68;2.00;;;;;;;8.17;76.82;99538.38;5062065;28;20393;-50
2021/05/16 03:50:08;;;;;;;6.22;2.25;;;;;;;8.12;77.95;99542.78;5064434;27;20187;-52
2021/05/16 03:52:34;;;;;;;;;;;;;;;8.08;78.50;99550.66;5063416;27;20048;-49
2021/05/16 03:54:59;;;;;;;7.13;2.30;;;;;;;8.10;78.02;99548.88;5063929;28;19923;-52
2021/05/16 03:57:27;;;;;;;7.25;2.38;;;;;;;8.17;77.31;99545.34;5067905;28;20039;-53
2021/05/16 03:59:53;;;;;;;6.03;2.00;;;;;;;8.12;77.46;99550.59;5052710;27;20067;-53
2021/05/16 04:02:19;;;;;;;4.95;1.75;;;;;;;8.11;77.30;99545.41;5056975;28;20694;-50
2021/05/16 04:04:45;;;;;;;5.22;1.55;;;;;;;8.27;76.67;99557.34;5066169;28;20052;-50
2021/05/16 04:07:11;;;;;;;6.93;2.05;;;;;;;8.20;76.45;99555.72;5081110;27;20774;-50
2021/05/16 04:09:36;;;;;;;4.65;1.83;;;;;;;8.26;76.99;99552.16;5067854;28;20032;-49
2021/05/16 04:12:02;;;;;;;5.40;2.35;;;;;;;8.22;77.06;99553.94;5061998;27;20048;-50
2021/05/16 04:14:29;;;;;;;8.60;2.40;;;;;;;8.16;75.93;99554.03;5064775;28;20035;-51
2021/05/16 04:16:55;;;;;;;5.93;1.67;;;;;;;8.28;76.12;99558.19;5054032;27;20448;-49
2021/05/16 04:19:21;;;;;;;5.63;1.73;;;;;;;8.26;77.10;99554.75;5053410;28;20451;-51
2021/05/16 04:21:47;;;;;;;4.57;1.90;;;;;;;8.19;76.69;99560.03;5066396;28;20020;-49
2021/05/16 04:24:13;;;;;;;5.70;1.55;;;;;;;8.19;75.95;99565.22;5052634;28;20028;-51
2021/05/16 04:26:39;;;;;;;4.28;2.35;;;;;;;8.16;75.96;99554.88;5066281;27;20123;-50
2021/05/16 04:29:06;;;;;;;6.65;2.20;;;;;;;8.15;75.50;99560.94;5066139;28;20257;-51
2021/05/16 04:31:32;;;;;;;5.57;2.35;;;;;;;8.25;76.54;99560.84;5056831;28;20048;-50
2021/05/16 04:33:58;;;;;;;6.90;1.88;;;;;;;8.33;76.93;99559.88;5048374;28;20479;-49
2021/05/16 04:36:24;;;;;;;4.35;2.10;;;;;;;8.24;76.32;99566.91;5045709;28;20020;-49
2021/05/16 04:38:52;;;;;;;7.95;2.10;;;;;;;8.27;76.61;99561.69;5062996;28;20063;-50
2021/05/16 04:41:20;;;;;;;6.10;2.05;;;;;;;8.25;77.69;99561.72;5070832;27;20047;-50
2021/05/16 04:43:46;;;;;;;4.43;1.85;;;;;;;8.24;76.89;99566.91;5067124;28;20192;-49
2021/05/16 04:46:12;;;;;;;5.07;2.10;;;;;;;8.23;77.13;99567.81;5063102;28;20056;-52
2021/05/16 04:48:38;;;;;;;6.88;2.30;;;;;;;8.33;78.00;99566.81;5065957;28;20031;-49
2021/05/16 04:51:04;;;;;;;7.82;2.13;;;;;;;8.29;78.81;99557.31;5064928;27;20032;-50
2021/05/16 04:53:33;;;;;;;4.72;1.85;;;;;;;8.57;77.57;99564.78;5069652;27;20131;-50
2021/05/16 04:56:01;;;;;;;6.40;1.92;;;;;;;8.30;76.60;99562.50;5067847;28;20385;-52
2021/05/16 04:58:28;;;;;;;6.53;1.85;;;;;;;8.38;76.11;99564.13;5072571;28;20043;-50
2021/05/16 05:00:54;;;;;;;6.13;2.35;;;;;;;8.32;77.65;99562.47;5068791;28;20024;-51
2021/05/16 05:03:22;;;;;;;5.10;1.90;;;;;;;8.39;76.58;99566.75;5068174;28;20089;-51
2021/05/16 05:05:53;;;;;;;7.25;1.95;;;;;;;8.74;77.38;99568.03;5078292;28;20444;-51
2021/05/16 05:08:20;;;;;;;5.97;1.92;;;;;;;8.60;75.68;99572.56;5044786;28;20037;-50
2021/05/16 05:10:46;;;;;;;4.55;1.90;;;;;;;8.60;75.90;99569.94;5051810;28;20131;-53
2021/05/16 05:13:12;;;;;;;6.13;2.83;;;;;;;8.71;75.40;99575.00;5065051;28;20047;-51
2021/05/16 05:15:39;;;;;;;6.05;2.10;;;;;;;9.02;75.55;99575.41;5066979;28;20036;-51
2021/05/16 05:18:05;;;;;;;6.38;2.53;;;;;;;9.05;75.43;99571.91;5064838;28;20119;-49
2021/05/16 05:20:31;;;;;;;4.43;2.00;;;;;;;8.82;75.79;99568.78;5051871;28;20463;-50
2021/05/16 05:22:57;;;;;;;5.78;2.15;;;;;;;8.89;76.81;99572.16;5063646;28;20450;-50
2021/05/16 05:25:23;;;;;;;4.63;2.10;;;;;;;8.83;77.49;99567.00;5064679;27;20047;-51
2021/05/16 05:27:48;;;;;;;6.95;2.33;;;;;;;8.89;74.62;99573.88;5050611;28;20412;-49
2021/05/16 05:30:15;;;;;;;5.18;2.47;;;;;;;9.10;76.28;99575.31;5046641;28;20034;-50
2021/05/16 05:32:41;;;;;;;6.65;2.38;;;;;;;9.01;76.17;99577.16;5049203;28;20442;-49
2021/05/16 05:35:07;;;;;;;5.95;2.50;;;;;;;8.99;76.75;99568.50;5065748;28;20032;-48
2021/05/16 05:37:32;;;;;;;7.13;2.45;;;;;;;9.16;76.22;99564.75;5059727;28;20233;-49
2021/05/16 05:39:58;;;;;;;7.85;2.30;;;;;;;9.27;74.43;99578.47;5047693;28;20040;-49
2021/05/16 05:42:26;;;;;;;7.45;2.58;;;;;;;9.38;75.37;99573.94;5052611;28;20024;-48
2021/05/16 05:44:51;;;;;;;5.57;3.03;;;;;;;9.45;74.91;99564.25;5042660;28;20076;-49
2021/05/16 05:47:18;;;;;;;7.45;2.88;;;;;;;9.40;74.97;99575.66;5044860;28;20060;-51
2021/05/16 05:49:43;;;;;;;9.18;4.55;;;;;;;9.56;74.59;99564.06;5056305;28;20050;-49
2021/05/16 05:52:10;;;;;;;6.70;3.08;;;;;;;9.32;74.43;99565.38;5050692;28;20515;-53
2021/05/16 05:54:37;;;;;;;8.82;4.15;;;;;;;9.64;75.17;99566.56;5073372;28;20028;-48
2021/05/16 05:57:04;;;;;;;9.23;3.70;;;;;;;9.71;73.92;99568.16;5067650;28;20515;-50
2021/05/16 05:59:31;;;;;;;9.85;3.70;;;;;;;9.59;74.07;99574.44;5053914;28;20051;-48
2021/05/16 06:01:59;;;;;;;9.55;4.13;;;;;;;9.37;75.16;99572.22;5072506;28;20044;-49
2021/05/16 06:04:25;;;;;;;7.85;4.22;;;;;;;9.54;75.78;99571.06;5053455;28;20672;-48
2021/05/16 06:06:51;;;;;;;10.35;3.92;;;;;;;9.43;74.05;99584.31;5067604;27;20037;-48
2021/05/16 06:09:17;;;;;;;8.15;3.80;;;;;;;9.50;76.24;99578.09;5073523;28;20032;-50
2021/05/16 06:11:43;;;;;;;8.35;3.17;;;;;;;9.89;74.32;99575.63;5066423;28;20036;-53
2021/05/16 06:14:09;;;;;;;8.77;3.55;;;;;;;9.60;74.24;99570.94;5069617;28;20215;-52
2021/05/16 06:16:35;;;;;;;6.05;2.92;;;;;;;9.77;74.33;99581.06;5065160;28;20589;-49
2021/05/16 06:19:00;;;;;;;6.75;3.20;;;;;;;9.85;74.31;99584.41;5056574;28;20291;-51
2021/05/16 06:21:27;;;;;;;7.93;2.90;;;;;;;9.85;75.07;99586.16;5073150;28;20040;-50
2021/05/16 06:26:32;;;;;;;7.32;3.05;;;;;;;9.55;74.63;99585.81;5065925;28;20492;-49
2021/05/16 06:28:59;;;;;;;8.52;3.58;;;;;;;9.47;76.68;99591.19;5068422;28;20077;-50
2021/05/16 06:31:25;;;;;;;8.35;2.90;;;;;;;9.64;75.17;99596.09;5066574;27;20044;-53
2021/05/16 06:33:51;;;;;;;8.82;3.80;;;;;;;10.05;74.82;99593.59;5051541;28;20043;-50
2021/05/16 06:36:17;;;;;;;7.60;3.35;;;;;;;9.92;75.73;99586.91;5074181;28;20054;-49
2021/05/16 06:38:43;;;;;;;7.75;4.00;;;;;;;9.61;77.13;99597.88;5064448;28;20522;-51
2021/05/16 06:41:09;;;;;;;7.63;3.85;;;;;;;9.52;80.07;99602.38;5070809;28;20036;-49
2021/05/16 06:43:35;;;;;;;7.65;4.03;;;;;;;9.47;78.05;99600.75;5050288;28;20048;-51
2021/05/16 06:46:01;;;;;;;10.05;3.95;;;;;;;9.44;80.53;99612.13;5067855;28;20081;-52
2021/05/16 06:48:29;;;;;;;10.95;3.85;;;;;;;9.41;80.76;99614.75;5071376;28;20040;-50
2021/05/16 06:50:55;;;;;;;7.20;3.15;;;;;;;9.47;80.32;99614.66;5050554;28;20998;-51
2021/05/16 06:53:21;;;;;;;10.70;3.78;;;;;;;9.55;82.04;99617.13;5028105;28;20046;-50
2021/05/16 06:55:47;;;;;;;11.60;4.03;;;;;;;9.29;81.01;99626.28;5046097;28;20571;-51
2021/05/16 06:58:14;;;;;;;9.05;3.45;;;;;;;9.48;79.48;99628.56;5067928;28;20044;-50
2021/05/16 07:00:39;;;;;;;10.85;3.78;;;;;;;9.22;82.97;99626.38;5068032;28;20033;-53
2021/05/16 07:03:06;;;;;;;7.65;2.85;;;;;;;9.44;82.07;99629.50;5063329;27;20055;-50
2021/05/16 07:05:32;;;;;;;9.05;3.13;;;;;;;9.41;83.14;99629.56;5064828;28;20040;-50
2021/05/16 07:07:58;;;;;;;8.73;2.97;;;;;;;9.39;83.63;99626.97;5051632;28;20075;-51
2021/05/16 07:10:27;;;;;;;10.20;3.53;;;;;;;9.34;83.01;99620.97;5056593;28;20136;-51
2021/05/16 07:12:53;;;;;;;7.97;3.22;;;;;;;9.20;84.50;99629.88;5043887;28;20128;-50
2021/05/16 07:15:18;;;;;;;7.45;3.08;;;;;;;9.16;82.19;99628.19;5040145;28;20039;-51
2021/05/16 07:17:45;;;;;;;7.20;2.97;;;;;;;9.12;83.87;99623.91;5070913;28;20036;-51
2021/05/16 07:20:14;;;;;;;8.98;3.35;;;;;;;9.41;84.13;99625.19;5077723;28;20480;-54
2021/05/16 07:22:40;;;;;;;9.38;3.88;;;;;;;9.38;84.56;99625.25;5058302;28;20504;-52
2021/05/16 07:25:06;;;;;;;11.32;3.80;;;;;;;9.38;85.27;99627.84;5075859;28;20113;-54
2021/05/16 07:27:32;;;;;;;6.82;3.33;;;;;;;9.39;84.84;99624.38;5078715;28;20040;-53
2021/05/16 07:29:58;;;;;;;9.75;4.05;;;;;;;9.38;84.02;99633.06;5074489;28;20051;-54
2021/05/16 07:32:24;;;;;;;8.50;3.55;;;;;;;9.35;84.45;99640.97;5077489;28;20074;-51
2021/05/16 07:34:55;;;;;;;9.27;4.10;;;;;;;9.44;85.03;99637.31;5076576;27;20475;-51
2021/05/16 07:37:22;;;;;;;12.02;3.40;;;;;;;9.38;85.04;99633.06;5052109;28;20567;-54
2021/05/16 07:39:49;;;;;;;9.00;3.38;;;;;;;9.27;86.31;99629.78;5047622;28;20029;-56
2021/05/16 07:42:17;;;;;;;9.43;3.85;;;;;;;9.46;85.82;99628.59;5063888;28;20034;-52
2021/05/16 07:44:43;;;;;;;8.95;4.03;;;;;;;9.44;84.71;99630.38;5076786;28;20040;-55
2021/05/16 07:47:09;;;;;;;12.63;4.00;;;;;;;9.37;86.15;99627.00;5074862;28;20367;-55
2021/05/16 07:49:35;;;;;;;8.93;3.45;;;;;;;9.55;85.88;99630.16;5076819;27;20063;-51
2021/05/16 07:52:04;;;;;;;7.47;3.10;;;;;;;9.79;83.07;99633.25;5076686;27;20040;-54
2021/05/16 07:54:30;;;;;;;8.32;3.03;;;;;;;9.71;84.03;99633.41;5076311;28;20112;-53
2021/05/16 07:56:57;;;;;;;8.02;3.05;;;;;;;9.76;83.81;99628.97;5079165;28;20127;-53
2021/05/16 07:59:24;;;;;;;7.57;2.83;;;;;;;9.61;85.25;99634.41;5075662;28;20047;-53
2021/05/16 08:01:51;;;;;;;8.38;2.60;;;;;;;9.71;81.70;99625.56;5051266;28;20044;-51
2021/05/16 08:04:17;;;;;;;6.22;2.25;;;;;;;9.70;81.84;99634.28;5059205;28;20051;-55
2021/05/16 08:06:46;;;;;;;5.78;2.20;;;;;;;9.91;81.47;99633.00;5077454;28;20051;-50
2021/05/16 08:09:12;;;;;;;7.60;2.55;;;;;;;9.97;80.93;99629.44;5035293;27;20028;-52
2021/05/16 08:11:37;;;;;;;8.23;2.47;;;;;;;9.77;81.10;99628.03;5059634;28;20055;-53
2021/05/16 08:14:04;;;;;;;5.72;2.75;;;;;;;9.69;82.32;99633.41;5054317;27;20040;-51
2021/05/16 08:16:31;;;;;;;8.23;2.67;;;;;;;9.87;83.71;99636.56;5052184;28;20971;-55
2021/05/16 08:18:57;;;;;;;8.52;3.28;;;;;;;10.16;82.98;99633.44;5052160;28;20069;-52
2021/05/16 08:21:23;;;;;;;11.15;2.70;;;;;;;10.12;81.62;99630.88;5053890;28;20027;-55
2021/05/16 08:23:48;;;;;;;6.13;2.40;;;;;;;10.02;82.37;99632.81;5067564;28;20395;-53
2021/05/16 08:26:14;;;;;;;5.43;2.72;;;;;;;10.01;82.30;99633.69;5067350;28;20050;-51
2021/05/16 08:28:40;;;;;;;5.65;3.38;;;;;;;9.85;82.81;99634.00;5070918;28;20043;-52
2021/05/16 08:31:06;;;;;;;6.60;3.63;;;;;;;10.09;81.89;99633.56;5064929;28;20043;-53
2021/05/16 08:33:31;;;;;;;8.38;3.47;;;;;;;9.97;80.87;99632.03;5052676;28;20411;-54
2021/05/16 08:35:57;;;;;;;9.63;3.40;;;;;;;10.12;81.06;99634.38;5066960;28;20052;-50
2021/05/16 08:38:23;;;;;;;6.63;3.65;;;;;;;10.30;82.08;99629.66;5063547;28;20603;-55
2021/05/16 08:40:49;;;;;;;9.05;3.35;;;;;;;10.17;82.39;99640.34;5063118;27;20300;-53
2021/05/16 08:43:15;;;;;;;7.25;2.38;;;;;;;10.17;79.12;99626.44;5065203;27;20036;-51
2021/05/16 08:45:42;;;;;;;6.75;2.15;;;;;;;10.22;79.06;99633.28;5069889;28;20036;-51
2021/05/16 08:48:08;;;;;;;6.85;2.33;;;;;;;10.26;79.89;99628.00;5063769;28;20342;-55
2021/05/16 08:50:36;;;;;;;7.22;2.55;;;;;;;10.21;79.90;99626.34;5066006;28;20122;-51
2021/05/16 08:53:02;;;;;;;5.05;2.00;;;;;;;10.26;78.76;99630.63;5065501;27;20044;-52
2021/05/16 08:55:27;;;;;;;6.55;2.30;;;;;;;10.11;81.65;99635.25;5059213;28;20117;-54
2021/05/16 08:57:53;;;;;;;4.90;2.22;;;;;;;10.21;80.74;99631.56;5044894;28;20071;-56
2021/05/16 09:00:21;;;;;;;4.40;1.65;;;;;;;10.54;77.45;99629.19;5057260;28;20488;-51
2021/05/16 09:03:04;;;;;;;4.97;1.67;;;;;;;10.69;78.80;99627.16;5071236;27;20055;-52
2021/05/16 09:05:51;;;;;;;5.35;1.52;;;;;;;10.93;80.90;99619.66;5052203;27;20042;-55
2021/05/16 09:08:26;;;;;;;7.35;1.90;;;;;;;10.95;77.69;99612.63;5049221;27;20058;-54
2021/05/16 09:10:58;;;;;;;3.53;1.70;;;;;;;10.97;78.96;99610.84;5048886;28;20049;-54
2021/05/16 09:13:26;;;;;;;;;;;;;;;11.20;76.52;99608.56;5051044;28;20506;-51
2021/05/16 09:16:07;;;;;;;6.93;2.03;;;;;;;11.18;74.41;99604.25;5067555;28;20268;-54
2021/05/16 09:18:46;;;;;;;6.80;1.90;;;;;;;11.13;76.61;99609.59;5071040;28;20282;-52
2021/05/16 09:21:38;;;;;;;3.80;1.48;;;;;;;11.55;73.89;99614.66;5075566;28;21866;-51
2021/05/16 09:24:07;;;;;;;5.40;1.60;;;;;;;11.63;76.01;99596.16;5077639;28;20123;-51
2021/05/16 09:26:38;;;;;;;5.68;1.80;;;;;;;11.71;73.12;99611.63;5078080;27;20044;-50
2021/05/16 09:29:43;;;;;;;6.95;1.83;;;;;;;11.83;70.10;99608.69;5077124;28;20256;-51
2021/05/16 09:32:09;;;;;;;6.10;1.67;;;;;;;11.84;72.01;99602.56;5076424;28;20040;-53
2021/05/16 09:34:38;;;;;;;7.70;2.17;;;;;;;11.86;71.07;99603.38;5077074;28;20052;-50
2021/05/16 09:37:06;;;;;;;;;;;;;;;11.89;70.79;99592.84;5074468;28;20044;-51
2021/05/16 09:39:34;;;;;;;7.97;1.55;;;;;;;12.00;69.74;99592.53;5079575;28;19919;-52
2021/05/16 09:42:05;;;;;;;4.88;1.73;;;;;;;11.92;69.09;99587.50;5080173;28;20071;-54
2021/05/16 09:44:36;;;;;;;6.32;1.70;;;;;;;11.87;71.10;99583.28;5059163;28;20040;-50
2021/05/16 09:47:25;;;;;;;7.05;1.75;;;;;;;12.05;68.69;99577.56;5061074;28;20048;-52
2021/05/16 09:50:00;;;;;;;8.35;1.65;;;;;;;12.22;67.97;99574.44;5071542;28;20036;-52
2021/05/16 09:52:36;;;;;;;5.80;1.70;;;;;;;11.98;70.50;99567.31;5073952;28;20145;-55
2021/05/16 09:55:09;;;;;;;4.40;2.15;;;;;;;11.83;70.84;99576.41;5061127;28;20160;-51
2021/05/16 09:57:39;;;;;;;7.18;1.83;;;;;;;11.63;73.14;99576.94;5084094;28;20093;-53
2021/05/16 10:00:07;;;;;;;8.60;2.05;;;;;;;11.89;71.96;99577.13;5076357;28;20424;-50
2021/05/16 10:02:36;;;;;;;3.55;1.70;;;;;;;11.99;71.81;99569.00;5073012;27;20055;-53
2021/05/16 10:05:04;;;;;;;6.38;1.95;;;;;;;11.69;76.73;99585.50;5080051;28;20040;-53
2021/05/16 10:07:30;;;;;;;6.77;1.83;;;;;;;11.82;74.31;99588.63;5075060;27;20499;-51
2021/05/16 10:09:57;;;;;;;8.05;2.17;;;;;;;11.69;73.15;99582.88;5072685;27;20036;-52
2021/05/16 10:12:23;;;;;;;7.00;1.90;;;;;;;11.58;75.28;99577.91;5060339;28;20139;-52
2021/05/16 10:15:02;;;;;;;7.28;2.15;;;;;;;11.59;73.84;99578.81;5075187;27;20139;-53
2021/05/16 10:17:33;;;;;;;4.90;2.17;;;;;;;11.54;74.90;99576.28;5077548;28;20039;-51
2021/05/16 10:20:03;;;;;;;6.75;1.88;;;;;;;11.38;74.23;99569.72;5079038;27;21166;-53
2021/05/16 10:22:30;;;;;;;8.02;2.33;;;;;;;11.66;74.53;99564.66;5060471;28;20066;-51
2021/05/16 10:24:56;;;;;;;9.57;1.95;;;;;;;12.00;71.45;99558.50;5078929;28;20044;-54
2021/05/16 10:27:30;;;;;;;6.05;2.13;;;;;;;12.01;71.64;99559.38;5046209;28;20028;-51
2021/05/16 10:29:56;;;;;;;6.35;1.90;;;;;;;12.21;72.85;99556.16;5079240;28;20040;-53
2021/05/16 10:32:35;;;;;;;5.45;1.80;;;;;;;11.98;68.98;99549.84;5080003;27;20351;-52
2021/05/16 10:35:11;;;;;;;6.95;1.98;;;;;;;12.37;70.60;99541.69;5077985;28;20122;-55
2021/05/16 10:37:49;;;;;;;6.15;2.03;;;;;;;12.81;67.53;99540.38;5077499;28;20379;-55
2021/05/16 10:40:32;;;;;;;6.03;1.23;;;;;;;12.98;62.03;99524.09;5077083;28;20036;-53
2021/05/16 10:43:01;;;;;;;6.10;1.88;;;;;;;13.15;61.51;99529.63;5078529;28;20036;-53
2021/05/16 10:45:39;;;;;;;6.72;1.85;;;;;;;12.99;66.67;99531.03;5062444;28;20040;-51
2021/05/16 10:48:11;;;;;;;5.32;1.67;;;;;;;13.39;61.51;99522.72;5081426;28;20040;-56
2021/05/16 10:50:42;;;;;;;4.88;2.00;;;;;;;13.58;64.31;99517.69;5062223;28;20223;-52
2021/05/16 10:53:10;;;;;;;6.25;1.77;;;;;;;13.41;61.97;99520.91;5067477;28;20489;-54
2021/05/16 10:55:43;;;;;;;3.20;1.50;;;;;;;13.40;62.01;99515.72;5075977;28;20036;-54
2021/05/16 10:58:33;;;;;;;5.10;1.88;;;;;;;13.29;64.54;99511.66;5076541;28;20036;-53
2021/05/16 11:01:14;;;;;;;4.10;1.42;;;;;;;13.27;60.34;99508.22;5080016;28;20328;-51
2021/05/16 11:04:00;;;;;;;7.60;1.58;;;;;;;13.29;63.65;99509.03;5077537;28;20062;-50
2021/05/16 11:06:38;;;;;;;4.72;1.50;;;;;;;13.63;61.13;99504.41;5072453;28;20516;-51
2021/05/16 11:09:06;;;;;;;4.53;1.60;;;;;;;13.56;60.81;99495.88;5073872;27;20066;-53
2021/05/16 11:11:40;;;;;;;7.82;1.70;;;;;;;13.69;61.55;99498.06;5056960;28;20040;-52
2021/05/16 11:14:13;;;;;;;6.50;1.60;;;;;;;13.83;62.69;99490.56;5059219;28;20458;-54
2021/05/16 11:16:44;;;;;;;7.07;2.00;;;;;;;14.07;58.83;99490.56;5054870;27;20075;-53
2021/05/16 11:19:10;;;;;;;4.93;1.70;;;;;;;14.25;61.38;99492.47;5058076;27;20052;-52
2021/05/16 11:21:36;;;;;;;3.97;1.50;;;;;;;14.07;60.09;99493.19;5055943;28;20085;-53
2021/05/16 11:24:04;;;;;;;6.63;2.17;;;;;;;14.22;61.91;99486.47;5076055;28;20052;-53
2021/05/16 11:26:30;;;;;;;4.15;1.40;;;;;;;14.18;56.19;99484.84;5074693;28;20055;-51
2021/05/16 11:28:59;;;;;;;4.93;1.60;;;;;;;14.26;58.70;99490.69;5054650;28;20052;-52
2021/05/16 11:31:33;;;;;;;2.67;1.10;;;;;;;14.13;57.03;99482.41;5073964;27;20048;-51
2021/05/16 11:34:02;;;;;;;5.70;1.80;;;;;;;14.34;56.40;99478.09;5074725;28;20486;-51
2021/05/16 11:36:33;;;;;;;8.43;1.92;;;;;;;14.87;57.60;99479.53;5058201;28;20102;-52
2021/05/16 11:39:02;;;;;;;3.33;1.25;;;;;;;14.86;58.87;99475.19;5069741;28;20198;-53
2021/05/16 11:41:40;;;;;;;4.82;1.63;;;;;;;14.87;55.67;99469.00;5074815;28;20299;-52
2021/05/16 11:44:08;;;;;;;6.22;2.00;;;;;;;14.74;56.76;99468.63;5074796;28;20625;-53
2021/05/16 11:46:43;;;;;;;4.97;1.60;;;;;;;14.71;56.48;99465.28;5074286;28;20048;-51